Time;durP1;ratioP1;P1;durP2;ratioP2;P2;SDS_P1;SDS_P2;PMS_P1;PMS_P2;Temp;Humidity;BMP_temperature;BMP_pressure;BME280_temperature;BME280_humidity;BME280_pressure;Samples;Min_cycle;Max_cycle;Signal;HPM_P1;HPM_P2
2021/05/17 04:49:43;;;;;;;6.15;3.10;;;;;;;14.03;100.00;98589.91;1673329;84;21067;-37
2021/05/17 04:52:10;;;;;;;4.75;3.40;;;;;;;14.04;100.00;98577.61;1712826;82;21658;-43
2021/05/17 04:54:37;;;;;;;4.22;2.62;;;;;;;14.03;100.00;98574.13;1711864;83;21045;-37
2021/05/17 04:57:04;;;;;;;6.37;3.22;;;;;;;14.03;100.00;98575.87;1703160;83;21183;-37
2021/05/17 04:59:32;;;;;;;4.92;3.05;;;;;;;14.03;100.00;98577.19;1704265;83;21066;-37
2021/05/17 05:01:59;;;;;;;5.20;2.92;;;;;;;14.05;100.00;98597.72;1677421;83;21086;-37
2021/05/17 05:04:26;;;;;;;2.72;2.42;;;;;;;14.07;100.00;98616.91;1710135;83;21401;-42
2021/05/17 05:06:53;;;;;;;4.30;2.85;;;;;;;14.13;100.00;98641.64;1709258;83;21096;-37
2021/05/17 05:09:21;;;;;;;4.00;2.45;;;;;;;14.22;100.00;98654.44;1698137;83;21068;-36
2021/05/17 05:11:48;;;;;;;3.12;2.70;;;;;;;14.33;100.00;98646.11;1695841;83;21134;-37
2021/05/17 05:14:15;;;;;;;3.45;3.00;;;;;;;14.44;100.00;98624.59;1707264;83;21140;-43
2021/05/17 05:16:42;;;;;;;4.85;2.40;;;;;;;14.51;100.00;98624.32;1708933;82;21149;-37
2021/05/17 05:19:10;;;;;;;6.05;2.20;;;;;;;14.56;100.00;98649.98;1704478;83;21076;-37
2021/05/17 05:21:37;;;;;;;5.22;3.35;;;;;;;14.61;100.00;98639.23;1705561;82;21079;-37
2021/05/17 05:24:06;;;;;;;5.92;3.00;;;;;;;14.71;100.00;98632.67;1704355;83;21091;-37
2021/05/17 05:26:52;;;;;;;5.45;3.05;;;;;;;14.83;99.36;98633.91;1707536;82;21066;-38
2021/05/17 05:32:19;;;;;;;6.47;3.22;;;;;;;14.98;97.67;98633.72;1706065;83;21115;-37
2021/05/17 05:34:09;;;;;;;5.17;3.22;;;;;;;15.07;98.09;98633.30;1697844;83;21831;-38
2021/05/17 05:36:37;;;;;;;4.60;2.95;;;;;;;15.14;97.46;98651.87;1704892;83;21051;-43
2021/05/17 05:39:04;;;;;;;4.80;2.98;;;;;;;15.18;97.21;98668.77;1707293;82;21673;-43
2021/05/17 05:41:31;;;;;;;7.35;2.90;;;;;;;15.21;97.08;98694.60;1703371;83;21602;-42
2021/05/17 05:43:58;;;;;;;4.17;2.72;;;;;;;15.23;96.24;98704.59;1706674;83;21096;-37
2021/05/17 05:46:25;;;;;;;5.22;2.85;;;;;;;15.28;96.62;98706.11;1706853;83;21050;-36
2021/05/17 05:48:57;;;;;;;7.60;2.87;;;;;;;15.33;95.12;98726.98;1693549;81;21115;-36
2021/05/17 05:51:28;;;;;;;;;;;;;;;15.36;95.09;98739.55;1695020;82;21647;-40
2021/05/17 05:53:56;;;;;;;5.55;2.37;;;;;;;15.41;94.46;98769.19;1703286;81;20183;-36
2021/05/17 05:56:24;;;;;;;4.85;2.85;;;;;;;15.45;94.66;98787.05;1709203;82;21098;-36
2021/05/17 05:58:51;;;;;;;5.33;2.52;;;;;;;15.48;92.57;98817.67;1709346;82;21106;-41
2021/05/17 06:01:17;;;;;;;9.10;2.98;;;;;;;15.47;92.68;98840.55;1707249;82;21038;-37
2021/05/17 06:03:45;;;;;;;4.05;2.33;;;;;;;15.43;92.88;98849.53;1707197;82;21114;-37
2021/05/17 06:06:12;;;;;;;4.67;2.70;;;;;;;15.40;93.15;98864.13;1711047;82;21011;-37
2021/05/17 06:08:40;;;;;;;3.27;2.05;;;;;;;15.36;92.80;98895.02;1713924;83;21065;-37
2021/05/17 06:11:08;;;;;;;4.90;2.35;;;;;;;15.30;92.57;98922.94;1706235;82;21695;-42
2021/05/17 06:13:37;;;;;;;5.92;1.90;;;;;;;15.26;92.86;98949.50;1712891;82;21131;-37
2021/05/17 06:16:07;;;;;;;9.48;2.72;;;;;;;15.22;92.87;98963.70;1708697;82;21110;-36
2021/05/17 06:18:38;;;;;;;6.47;2.47;;;;;;;15.18;92.94;98976.12;1710869;83;21685;-37
2021/05/17 06:21:08;;;;;;;7.17;2.45;;;;;;;15.14;92.98;98981.14;1709925;82;21182;-37
2021/05/17 06:23:35;;;;;;;6.35;2.60;;;;;;;15.08;93.11;98992.77;1706955;82;21144;-40
2021/05/17 06:26:02;;;;;;;2.83;2.22;;;;;;;15.05;93.59;99001.23;1708390;82;21084;-41
2021/05/17 06:29:18;;;;;;;3.00;2.20;;;;;;;14.99;93.62;98986.53;1707910;82;21139;-36
2021/05/17 06:35:28;;;;;;;2.52;2.00;;;;;;;14.90;93.62;98993.02;1713461;82;21546;-41
2021/05/17 06:38:39;;;;;;;4.55;2.25;;;;;;;14.87;93.65;98981.27;1710702;82;21108;-41
2021/05/17 06:41:47;;;;;;;4.37;2.17;;;;;;;14.85;93.88;98978.31;1709776;82;21601;-44
2021/05/17 06:44:29;;;;;;;3.30;2.30;;;;;;;14.84;93.39;98960.34;1711020;82;21119;-41
2021/05/17 06:48:04;;;;;;;6.75;2.17;;;;;;;14.82;93.25;98943.73;1710809;82;21193;-37
2021/05/17 06:51:29;;;;;;;4.58;2.55;;;;;;;14.82;93.26;98917.86;1708926;82;21466;-41
2021/05/17 06:53:58;;;;;;;3.35;2.10;;;;;;;14.76;93.71;98900.52;1713129;82;21622;-41
2021/05/17 06:59:04;;;;;;;4.40;2.45;;;;;;;14.70;94.73;98871.81;1711356;82;21046;-36
2021/05/17 07:01:32;;;;;;;3.47;2.27;;;;;;;14.67;95.16;98872.37;1707786;83;21079;-41
2021/05/17 07:03:59;;;;;;;5.70;2.70;;;;;;;14.61;95.66;98830.05;1709670;82;21024;-42
2021/05/17 07:06:28;;;;;;;3.87;2.77;;;;;;;14.54;96.75;98776.80;1713113;82;21105;-37
2021/05/17 07:12:02;;;;;;;3.67;2.67;;;;;;;14.40;98.46;98719.05;1710468;83;21171;-37
2021/05/17 07:14:24;;;;;;;9.48;2.87;;;;;;;14.33;99.68;98652.69;1709340;83;21042;-43
2021/05/17 07:16:51;;;;;;;4.50;2.62;;;;;;;14.26;100.00;98627.09;1707923;83;21826;-41
2021/05/17 07:19:18;;;;;;;5.62;2.20;;;;;;;14.21;100.00;98664.56;1709690;82;21483;-42
2021/05/17 07:25:11;;;;;;;4.45;2.60;;;;;;;14.24;100.00;98802.52;1708292;82;21014;-37
2021/05/17 07:27:56;;;;;;;8.48;2.80;;;;;;;14.30;100.00;98832.98;1705745;82;21154;-37
2021/05/17 07:30:48;;;;;;;4.08;2.62;;;;;;;14.33;100.00;98877.15;1698807;83;21123;-43
2021/05/17 07:33:57;;;;;;;4.37;2.50;;;;;;;14.37;100.00;98895.83;1710955;82;21068;-37
2021/05/17 07:37:43;;;;;;;6.55;2.60;;;;;;;14.45;100.00;98878.92;1712847;82;21154;-37
2021/05/17 07:44:41;;;;;;;5.08;2.37;;;;;;;14.62;100.00;98836.59;1709933;82;21645;-36
2021/05/17 07:47:39;;;;;;;6.92;2.45;;;;;;;14.74;99.97;98822.08;1705319;83;21127;-37
2021/05/17 07:50:50;;;;;;;6.05;2.65;;;;;;;14.82;98.90;98825.25;1683545;83;21643;-42
2021/05/17 07:54:07;;;;;;;3.00;2.22;;;;;;;14.88;98.28;98807.03;1704116;83;21114;-41
2021/05/17 07:56:41;;;;;;;4.33;1.87;;;;;;;14.98;98.04;98809.69;1696624;82;21121;-41
2021/05/17 08:02:38;;;;;;;4.40;2.10;;;;;;;15.19;97.64;98797.41;1695438;83;21707;-35
2021/05/17 08:10:04;;;;;;;5.70;2.55;;;;;;;15.63;97.00;98798.14;1689437;83;21033;-36
2021/05/17 08:16:55;;;;;;;4.15;1.92;;;;;;;16.20;95.24;98814.05;1695016;83;21061;-42
2021/05/17 08:20:41;;;;;;;3.77;2.10;;;;;;;16.56;94.37;98825.97;1690124;83;21134;-37
2021/05/17 08:24:02;;;;;;;3.62;2.02;;;;;;;16.91;90.34;98822.98;1694178;83;21149;-36
2021/05/17 08:26:52;;;;;;;2.55;2.10;;;;;;;17.12;86.47;98821.08;1696102;83;21145;-38
2021/05/17 08:29:19;;;;;;;3.15;2.25;;;;;;;17.34;86.49;98814.72;1696919;83;21062;-42
2021/05/17 08:32:16;;;;;;;2.92;1.60;;;;;;;17.49;83.96;98811.27;1692460;83;21118;-42
2021/05/17 08:34:56;;;;;;;3.30;1.98;;;;;;;17.58;84.78;98808.16;1681752;83;21074;-42
2021/05/17 08:37:44;;;;;;;4.28;2.22;;;;;;;17.69;82.15;98799.20;1693113;83;21509;-42
2021/05/17 08:43:30;;;;;;;3.40;2.17;;;;;;;17.93;82.38;98783.84;1694592;83;21151;-42
2021/05/17 08:46:11;;;;;;;3.05;1.98;;;;;;;18.05;81.31;98784.50;1677485;83;21320;-41
2021/05/17 08:48:51;;;;;;;5.47;2.42;;;;;;;18.18;80.33;98779.39;1696351;83;21101;-42
2021/05/17 08:51:31;;;;;;;6.40;2.30;;;;;;;18.35;80.32;98779.79;1704011;82;21739;-42
2021/05/17 08:54:03;;;;;;;2.67;1.72;;;;;;;18.49;79.19;98784.30;1685013;83;21695;-42
2021/05/17 08:56:32;;;;;;;5.25;2.10;;;;;;;18.64;78.88;98795.84;1705170;82;21068;-37
2021/05/17 08:59:02;;;;;;;2.77;1.80;;;;;;;18.79;78.05;98795.86;1704015;83;21637;-37
2021/05/17 09:05:36;;;;;;;3.92;2.02;;;;;;;19.25;74.15;98789.66;1796513;78;22701;-42
2021/05/17 09:08:04;;;;;;;3.90;2.02;;;;;;;19.35;75.24;98785.05;1722063;80;21206;-42
2021/05/17 09:10:38;;;;;;;6.75;1.70;;;;;;;19.53;75.41;98783.09;1697098;83;21654;-43
2021/05/17 09:13:11;;;;;;;4.05;1.87;;;;;;;19.67;73.09;98786.28;1687705;83;21090;-37
2021/05/17 09:15:43;;;;;;;5.75;2.02;;;;;;;19.71;72.35;98781.14;1695589;83;21395;-42
2021/05/17 09:18:27;;;;;;;4.80;1.85;;;;;;;19.77;71.74;98778.15;1697444;83;21085;-35
2021/05/17 09:20:55;;;;;;;2.27;1.62;;;;;;;19.83;71.76;98768.48;1711463;82;21072;-42
2021/05/17 09:23:33;;;;;;;3.02;1.55;;;;;;;19.91;69.35;98772.83;1709819;82;21222;-36
2021/05/17 09:26:17;;;;;;;2.80;2.00;;;;;;;19.92;70.51;98774.53;1681777;83;21599;-37
2021/05/17 09:33:00;;;;;;;3.20;1.80;;;;;;;20.03;70.36;98776.52;1690264;83;21483;-37
2021/05/17 09:35:33;;;;;;;2.90;1.70;;;;;;;20.08;70.17;98769.59;1698913;82;21087;-37
2021/05/17 09:38:04;;;;;;;3.10;2.05;;;;;;;20.17;69.46;98771.17;1657769;82;21146;-38
2021/05/17 09:40:31;;;;;;;2.00;1.55;;;;;;;20.18;69.10;98769.41;1698512;82;21081;-38
2021/05/17 09:43:07;;;;;;;3.15;2.00;;;;;;;20.20;69.24;98771.47;1692125;83;21465;-42
2021/05/17 09:45:46;;;;;;;3.40;2.00;;;;;;;20.23;68.25;98770.41;1701091;83;21721;-43
2021/05/17 09:48:22;;;;;;;3.98;1.72;;;;;;;20.27;68.10;98774.59;1702250;82;21129;-38
2021/05/17 09:51:08;;;;;;;3.50;1.90;;;;;;;20.30;65.92;98784.55;1697223;83;21026;-37
2021/05/17 09:53:42;;;;;;;6.87;2.90;;;;;;;20.33;67.64;98784.82;1714992;83;21086;-43
2021/05/17 09:56:16;;;;;;;3.95;1.70;;;;;;;20.37;66.63;98792.50;1714669;82;21030;-42
2021/05/17 09:58:45;;;;;;;4.97;1.90;;;;;;;20.36;67.18;98788.14;1716227;81;21092;-45
2021/05/17 10:01:21;;;;;;;8.43;1.95;;;;;;;20.44;66.92;98782.33;1718652;81;21588;-42
2021/05/17 10:03:54;;;;;;;6.05;2.00;;;;;;;20.54;68.61;98783.97;1697954;83;21074;-37
2021/05/17 10:06:26;;;;;;;2.27;1.82;;;;;;;20.59;65.25;98782.72;1703240;82;21023;-37
2021/05/17 10:08:54;;;;;;;3.20;2.08;;;;;;;20.56;65.14;98791.34;1655193;84;21863;-37
2021/05/17 10:11:24;;;;;;;8.83;2.02;;;;;;;20.47;66.83;98794.14;1679156;83;21047;-37
2021/05/17 10:13:51;;;;;;;4.58;1.90;;;;;;;20.45;65.86;98791.55;1729916;81;21628;-37
2021/05/17 10:16:21;;;;;;;2.92;1.90;;;;;;;20.43;66.83;98793.44;1732797;80;21055;-37
2021/05/17 10:18:50;;;;;;;6.40;2.40;;;;;;;20.44;66.93;98788.97;1727364;81;21097;-38
2021/05/17 10:21:23;;;;;;;3.42;2.25;;;;;;;20.53;67.12;98784.45;1734619;81;21015;-37
2021/05/17 10:28:12;;;;;;;3.58;1.95;;;;;;;20.92;66.20;98791.59;1730059;81;21109;-42
2021/05/17 10:30:41;;;;;;;3.85;2.20;;;;;;;21.24;65.63;98797.92;1734224;81;21122;-40
2021/05/17 10:33:11;;;;;;;7.97;2.10;;;;;;;21.47;65.61;98802.56;1733558;81;21118;-38
2021/05/17 10:35:47;;;;;;;5.83;2.00;;;;;;;21.74;64.12;98812.25;1728824;81;22000;-36
2021/05/17 10:41:41;;;;;;;2.90;2.20;;;;;;;22.05;62.28;98804.33;1712754;81;21653;-41
2021/05/17 10:46:52;;;;;;;2.72;1.80;;;;;;;22.51;61.49;98794.41;1730130;81;21118;-37
2021/05/17 10:49:34;;;;;;;3.77;2.08;;;;;;;22.70;59.95;98792.58;1732615;81;21082;-37
2021/05/17 10:52:12;;;;;;;8.13;2.60;;;;;;;22.82;60.48;98800.52;1735033;81;21082;-42
2021/05/17 10:54:43;;;;;;;6.78;2.72;;;;;;;22.82;58.71;98798.34;1730251;81;21106;-42
2021/05/17 10:57:40;;;;;;;4.53;2.20;;;;;;;22.73;60.52;98805.67;1729239;81;21185;-36
2021/05/17 11:02:45;;;;;;;7.28;1.77;;;;;;;22.42;61.49;98794.58;1728622;81;21090;-35
2021/05/17 11:05:19;;;;;;;3.75;2.00;;;;;;;22.31;60.07;98802.01;1710899;81;21059;-42
2021/05/17 11:08:03;;;;;;;4.10;1.80;;;;;;;22.27;63.16;98799.22;1734868;81;21082;-42
2021/05/17 11:10:42;;;;;;;6.75;2.40;;;;;;;22.25;62.28;98797.13;1697314;82;21621;-42
2021/05/17 11:13:16;;;;;;;3.58;2.15;;;;;;;22.17;60.67;98803.48;1734536;81;21050;-42
2021/05/17 11:15:52;;;;;;;4.62;2.22;;;;;;;22.01;60.91;98817.48;1733619;81;21106;-42
2021/05/17 11:18:33;;;;;;;4.55;2.40;;;;;;;21.85;61.72;98808.85;1736227;81;21704;-43
2021/05/17 11:21:07;;;;;;;3.33;2.02;;;;;;;21.72;62.31;98816.36;1737212;81;21122;-43
2021/05/17 11:23:44;;;;;;;6.33;2.15;;;;;;;21.61;62.84;98818.05;1732405;81;21078;-42
2021/05/17 11:26:17;;;;;;;4.28;2.92;;;;;;;21.44;62.66;98821.38;1732992;81;21509;-43
2021/05/17 11:28:49;;;;;;;3.52;2.20;;;;;;;21.31;62.69;98818.33;1682890;84;21098;-42
2021/05/17 11:31:29;;;;;;;;;;;;;;;21.19;62.87;98812.84;1733063;81;21043;-42
2021/05/17 11:34:01;;;;;;;3.42;1.98;;;;;;;21.14;63.41;98822.08;1739562;81;20163;-42
2021/05/17 11:36:47;;;;;;;7.42;1.87;;;;;;;21.19;64.66;98828.80;1692216;82;21051;-42
2021/05/17 11:39:22;;;;;;;2.52;1.90;;;;;;;21.23;62.57;98830.79;1726511;81;21620;-42
2021/05/17 11:42:02;;;;;;;8.80;1.90;;;;;;;21.14;63.18;98830.91;1731703;81;21090;-42
2021/05/17 11:44:54;;;;;;;3.95;2.00;;;;;;;21.06;63.90;98831.91;1729655;81;21883;-42
2021/05/17 11:47:27;;;;;;;3.72;1.92;;;;;;;21.02;64.41;98829.55;1728739;81;21078;-42
2021/05/17 11:49:55;;;;;;;3.42;1.70;;;;;;;20.94;63.25;98823.41;1731683;81;21046;-42
2021/05/17 11:52:29;;;;;;;3.50;2.12;;;;;;;20.90;63.42;98816.58;1731887;81;21098;-42
2021/05/17 11:55:02;;;;;;;5.45;2.05;;;;;;;20.99;65.15;98818.66;1721433;81;21135;-42
2021/05/17 11:57:34;;;;;;;;;;;;;;;21.09;64.04;98821.53;1731016;81;21125;-42
2021/05/17 12:00:08;;;;;;;5.40;1.80;;;;;;;21.12;64.00;98820.86;1734270;81;20457;-37
2021/05/17 12:02:47;;;;;;;4.28;1.80;;;;;;;21.13;63.02;98817.25;1732748;81;21188;-37
2021/05/17 12:05:15;;;;;;;7.20;2.15;;;;;;;21.19;62.44;98821.30;1737147;81;21094;-42
2021/05/17 12:07:49;;;;;;;2.85;1.98;;;;;;;21.31;64.52;98823.66;1741210;81;21070;-42
2021/05/17 12:10:16;;;;;;;4.03;1.90;;;;;;;21.38;62.86;98820.95;1689874;84;21680;-42
2021/05/17 12:12:44;;;;;;;7.35;2.12;;;;;;;21.32;62.91;98816.05;1751302;81;22025;-37
2021/05/17 12:15:17;;;;;;;7.60;2.62;;;;;;;21.24;64.57;98814.73;1738727;82;21700;-37
2021/05/17 12:17:43;;;;;;;5.33;2.45;;;;;;;21.25;63.64;98819.08;1730788;82;21086;-37
2021/05/17 12:20:15;;;;;;;6.22;2.12;;;;;;;21.30;64.46;98808.66;1729439;82;21544;-37
2021/05/17 12:22:47;;;;;;;5.42;2.10;;;;;;;21.38;64.11;98819.14;1737425;82;21082;-37
2021/05/17 12:25:20;;;;;;;6.90;2.27;;;;;;;21.43;62.55;98825.48;1729917;82;21428;-37
2021/05/17 12:27:49;;;;;;;3.20;1.35;;;;;;;21.49;62.26;98826.39;1726644;81;21955;-37
2021/05/17 12:30:23;;;;;;;6.12;1.80;;;;;;;21.60;60.76;98840.30;1728948;82;21067;-42
2021/05/17 12:32:53;;;;;;;6.67;2.00;;;;;;;21.60;60.36;98839.82;1734949;82;21129;-42
2021/05/17 12:35:34;;;;;;;6.45;2.00;;;;;;;21.64;60.18;98843.14;1718552;82;21046;-35
2021/05/17 12:38:04;;;;;;;4.00;2.12;;;;;;;21.69;61.61;98840.54;1744344;82;21787;-34
2021/05/17 12:40:42;;;;;;;5.58;2.37;;;;;;;21.73;61.35;98848.66;1720728;82;21086;-41
2021/05/17 12:43:35;;;;;;;3.22;2.25;;;;;;;21.64;61.19;98849.80;1741141;82;21749;-41
2021/05/17 12:45:59;;;;;;;5.37;2.08;;;;;;;21.51;62.22;98854.62;1741501;82;21562;-36
2021/05/17 12:48:43;;;;;;;3.10;1.75;;;;;;;21.55;62.58;98855.24;1734404;82;21152;-36
2021/05/17 12:51:22;;;;;;;3.58;2.00;;;;;;;21.58;61.35;98857.72;1741833;81;21090;-36
2021/05/17 12:53:51;;;;;;;5.87;2.00;;;;;;;21.56;60.74;98853.44;1687473;83;21045;-35
2021/05/17 12:56:32;;;;;;;5.33;2.00;;;;;;;21.60;61.37;98856.27;1725110;81;21403;-36
2021/05/17 12:59:18;;;;;;;3.08;1.87;;;;;;;21.64;60.95;98853.78;1745120;81;21049;-41
2021/05/17 13:01:45;;;;;;;4.53;2.00;;;;;;;21.63;60.72;98858.26;1742463;82;21428;-40
2021/05/17 13:04:24;;;;;;;2.17;1.87;;;;;;;21.57;60.46;98863.12;1715474;82;21095;-41
2021/05/17 13:07:05;;;;;;;5.25;2.05;;;;;;;21.43;60.49;98860.91;1742722;81;21448;-42
2021/05/17 13:09:36;;;;;;;2.22;2.00;;;;;;;21.34;61.28;98860.66;1707683;84;21090;-38
2021/05/17 13:12:05;;;;;;;3.35;2.02;;;;;;;21.34;61.69;98863.33;1744416;81;21657;-36
2021/05/17 13:14:32;;;;;;;3.72;2.58;;;;;;;21.40;60.95;98866.94;1745572;81;21050;-41
2021/05/17 13:17:02;;;;;;;3.80;2.55;;;;;;;21.45;61.09;98861.69;1742992;82;21101;-39
